Terminal Aerodrome Forecast
Issued by NWS Boston, MA

Home | Current Version | Previous Version | Text Only | Print | Product List | Glossary On
Versions: 1 2 3 4 5 6 7 8 9 10 11 12 13 14 15 16 17 18 19 20 21 22 23 24 25 26 27 28 29 30 31 32 33 34 35 36 37 38 39 40 41
000
FTUS41 KBOX 271726
TAFBOS
TAF
KBOS 271726Z 2718/2824 27005KT P6SM FEW250
     FM280400 22006KT P6SM BKN110
     FM281000 25008KT P6SM OVC050
     FM281400 25008KT 5SM -SHRA OVC050
     FM281800 25008KT P6SM OVC080=

USA.gov is the U.S. government's official web portal to all federal, state and local government web resources and services.